Time;durP1;ratioP1;P1;durP2;ratioP2;P2;SDS_P1;SDS_P2;PMS_P1;PMS_P2;Temp;Humidity;BMP_temperature;BMP_pressure;BME280_temperature;BME280_humidity;BME280_pressure;Samples;Min_cycle;Max_cycle;Signal;HPM_P1;HPM_P2
2022/06/16 00:00:35;;;;;;;6.40;3.20;;;15.00;91.00;;;;;;5116735;28;20950;-75
2022/06/16 00:03:04;;;;;;;7.50;2.93;;;15.00;91.10;;;;;;5116655;28;20459;-75
2022/06/16 00:05:35;;;;;;;4.07;2.50;;;15.00;91.10;;;;;;5098782;28;20983;-77
2022/06/16 00:08:04;;;;;;;5.33;2.97;;;14.90;91.20;;;;;;5117350;28;20485;-77
2022/06/16 00:10:33;;;;;;;4.50;3.00;;;15.00;91.30;;;;;;5098538;28;20525;-75
2022/06/16 00:13:01;;;;;;;4.20;2.90;;;14.90;91.30;;;;;;5098177;28;20446;-75
2022/06/16 00:15:30;;;;;;;4.27;3.37;;;14.90;91.30;;;;;;5098460;28;20888;-75
2022/06/16 00:18:00;;;;;;;4.07;2.77;;;14.90;91.40;;;;;;5098173;28;20443;-77
2022/06/16 00:20:28;;;;;;;4.00;3.07;;;14.90;91.50;;;;;;5098045;28;20439;-74
2022/06/16 00:22:56;;;;;;;4.50;3.47;;;14.90;91.50;;;;;;5116535;28;20410;-77
2022/06/16 00:25:25;;;;;;;5.90;3.07;;;14.90;91.60;;;;;;5116600;28;20467;-76
2022/06/16 00:27:53;;;;;;;5.10;3.23;;;14.90;91.70;;;;;;5097957;28;20447;-75
2022/06/16 00:30:22;;;;;;;3.73;3.33;;;14.90;91.70;;;;;;5098018;28;20471;-75
2022/06/16 00:32:50;;;;;;;4.30;3.50;;;14.90;91.80;;;;;;5132029;27;20453;-76
2022/06/16 00:35:20;;;;;;;4.03;3.33;;;14.90;91.80;;;;;;5097670;28;20806;-76
2022/06/16 00:37:48;;;;;;;5.80;3.23;;;14.80;91.80;;;;;;5130669;27;20547;-75
2022/06/16 00:40:16;;;;;;;7.37;3.73;;;14.80;91.90;;;;;;5097766;28;20539;-76
2022/06/16 00:42:45;;;;;;;3.97;3.17;;;14.80;92.00;;;;;;5097649;28;20546;-75
2022/06/16 00:45:44;;;;;;;6.53;4.47;;;14.70;92.10;;;;;;5097439;28;20509;-76
2022/06/16 00:48:18;;;;;;;3.87;3.10;;;14.70;92.20;;;;;;5075293;28;20426;-75
2022/06/16 00:50:54;;;;;;;3.50;3.00;;;14.70;92.20;;;;;;5116155;28;20523;-75
2022/06/16 00:53:22;;;;;;;3.27;2.97;;;14.70;92.30;;;;;;5116070;28;20462;-75
2022/06/16 00:55:51;;;;;;;4.83;3.43;;;14.70;92.40;;;;;;5115549;28;20501;-76
2022/06/16 00:58:21;;;;;;;6.00;4.10;;;14.60;92.40;;;;;;5131562;27;20884;-76
2022/06/16 01:00:51;;;;;;;4.80;3.10;;;14.60;92.50;;;;;;5097304;28;20422;-75
2022/06/16 01:06:16;;;;;;;3.33;3.00;;;14.60;92.80;;;;;;5096265;28;20450;-75
2022/06/16 01:08:45;;;;;;;4.27;3.50;;;14.60;92.80;;;;;;5098071;28;20417;-75
2022/06/16 01:13:41;;;;;;;6.23;3.97;;;14.60;92.80;;;;;;5097117;28;20447;-75
2022/06/16 01:14:26;;;;;;;3.77;3.40;;;14.60;92.90;;;;;;5096824;28;20459;-75
2022/06/16 01:17:02;;;;;;;7.10;3.83;;;14.50;93.30;;;;;;5115227;28;20518;-75
2022/06/16 01:19:50;;;;;;;4.40;3.53;;;14.50;93.00;;;;;;5115534;28;20880;-75
2022/06/16 01:22:35;;;;;;;4.07;3.50;;;14.50;93.20;;;;;;5096942;28;20421;-74
2022/06/16 01:25:19;;;;;;;4.40;4.00;;;14.50;93.30;;;;;;5131163;27;20414;-77
2022/06/16 01:28:13;;;;;;;4.27;3.80;;;14.40;93.30;;;;;;5097124;28;20968;-77
2022/06/16 01:30:53;;;;;;;5.10;3.53;;;14.40;93.40;;;;;;5131152;27;20575;-75
2022/06/16 01:33:28;;;;;;;5.17;4.20;;;14.40;93.40;;;;;;5131008;27;20543;-75
2022/06/16 01:36:07;;;;;;;4.17;3.47;;;14.30;93.40;;;;;;5096522;28;20581;-75
2022/06/16 01:38:44;;;;;;;5.17;3.30;;;14.30;93.40;;;;;;5096613;28;20850;-77
2022/06/16 01:41:23;;;;;;;4.40;3.43;;;14.30;93.40;;;;;;5096797;28;20497;-77
2022/06/16 01:44:01;;;;;;;4.10;3.10;;;14.30;93.50;;;;;;5096862;28;20418;-76
2022/06/16 01:46:34;;;;;;;3.33;3.03;;;14.30;93.50;;;;;;5096489;28;20463;-77
2022/06/16 01:49:17;;;;;;;4.13;3.07;;;14.30;93.60;;;;;;5096469;28;20439;-76
2022/06/16 01:51:50;;;;;;;4.57;3.83;;;14.20;93.60;;;;;;5096488;28;20546;-76
2022/06/16 01:54:22;;;;;;;3.60;3.20;;;14.20;93.60;;;;;;5096477;28;20821;-76
2022/06/16 01:56:57;;;;;;;4.40;4.00;;;14.20;93.70;;;;;;5096303;28;20490;-76
2022/06/16 01:59:29;;;;;;;5.70;3.40;;;14.20;93.80;;;;;;5096306;28;20439;-76
2022/06/16 02:02:05;;;;;;;5.47;4.37;;;14.20;93.90;;;;;;5096239;28;20917;-76
2022/06/16 02:04:38;;;;;;;4.23;3.83;;;14.20;94.00;;;;;;5097448;28;20438;-77
2022/06/16 02:07:14;;;;;;;5.20;3.70;;;14.10;94.00;;;;;;5095958;28;20444;-76
2022/06/16 02:09:47;;;;;;;7.57;4.03;;;14.10;94.20;;;;;;5130305;27;20960;-75
2022/06/16 02:12:55;;;;;;;4.87;4.30;;;14.00;94.20;;;;;;5130202;27;20494;-76
2022/06/16 02:15:19;;;;;;;7.27;3.90;;;14.00;94.30;;;;;;5096034;28;20491;-76
2022/06/16 02:17:59;;;;;;;5.17;4.50;;;13.90;94.40;;;;;;5096677;28;20960;-77
2022/06/16 02:20:33;;;;;;;4.53;4.07;;;13.90;94.50;;;;;;5096185;28;20444;-75
2022/06/16 02:23:02;;;;;;;6.97;4.47;;;13.90;94.70;;;;;;5114385;28;20412;-75
2022/06/16 02:25:30;;;;;;;4.37;3.97;;;13.80;94.70;;;;;;5095968;28;20447;-76
2022/06/16 02:27:58;;;;;;;4.23;3.60;;;13.70;94.80;;;;;;5095784;28;20478;-76
2022/06/16 02:30:30;;;;;;;3.63;3.33;;;13.70;95.00;;;;;;5095838;28;20547;-76
2022/06/16 02:33:07;;;;;;;4.83;4.43;;;13.70;95.10;;;;;;5114358;28;20443;-76
2022/06/16 02:35:43;;;;;;;6.43;4.87;;;13.70;95.20;;;;;;5096345;28;20483;-76
2022/06/16 02:38:27;;;;;;;6.10;5.00;;;13.70;95.40;;;;;;5096338;28;20434;-77
2022/06/16 02:41:10;;;;;;;6.93;4.87;;;13.60;95.50;;;;;;5116034;28;20423;-77
2022/06/16 02:43:50;;;;;;;5.43;4.30;;;13.60;95.60;;;;;;5132016;27;20469;-77
2022/06/16 02:46:30;;;;;;;5.03;4.30;;;13.50;95.70;;;;;;5132398;28;20860;-77
2022/06/16 02:49:08;;;;;;;6.47;5.50;;;13.50;95.90;;;;;;5097035;28;20538;-77
2022/06/16 02:51:43;;;;;;;5.70;4.30;;;13.50;96.00;;;;;;5096255;28;20484;-77
2022/06/16 02:54:22;;;;;;;10.50;6.80;;;13.40;96.10;;;;;;5096070;28;20784;-77
2022/06/16 02:56:56;;;;;;;8.50;4.67;;;13.40;96.30;;;;;;5095779;28;20479;-77
2022/06/16 02:59:28;;;;;;;6.00;4.83;;;13.40;96.40;;;;;;5095624;28;20903;-77
2022/06/16 03:02:02;;;;;;;4.87;4.30;;;13.30;96.50;;;;;;5097923;28;20553;-77
2022/06/16 03:04:38;;;;;;;5.80;4.47;;;13.30;96.70;;;;;;5100285;28;20947;-76
2022/06/16 03:07:06;;;;;;;4.40;4.00;;;13.30;96.80;;;;;;5099393;28;20465;-76
2022/06/16 03:09:37;;;;;;;7.63;4.83;;;13.20;96.90;;;;;;5099801;28;20963;-75
2022/06/16 03:12:06;;;;;;;5.47;4.50;;;13.20;97.00;;;;;;5099476;28;20490;-77
2022/06/16 03:14:37;;;;;;;4.63;4.23;;;13.20;97.20;;;;;;5099896;28;20471;-77
2022/06/16 03:17:07;;;;;;;5.70;4.90;;;13.20;97.30;;;;;;5099285;28;21062;-75
2022/06/16 03:19:38;;;;;;;7.63;6.00;;;13.20;97.40;;;;;;5100005;28;20431;-75
2022/06/16 03:22:07;;;;;;;6.33;5.70;;;13.20;97.50;;;;;;5099466;28;20458;-76
2022/06/16 03:24:36;;;;;;;6.57;5.97;;;13.20;97.60;;;;;;5099296;28;20474;-76
2022/06/16 03:27:05;;;;;;;6.77;6.07;;;13.20;97.70;;;;;;5099580;28;20554;-77
2022/06/16 03:29:39;;;;;;;6.80;6.20;;;13.10;97.80;;;;;;5099510;28;20438;-77
2022/06/16 03:32:10;;;;;;;6.87;6.27;;;13.10;98.00;;;;;;5099249;28;20439;-77
2022/06/16 03:34:41;;;;;;;6.97;6.27;;;13.10;98.10;;;;;;5099871;28;20447;-77
2022/06/16 03:37:09;;;;;;;9.47;6.53;;;13.10;98.30;;;;;;5133636;27;20575;-77
2022/06/16 03:39:42;;;;;;;7.77;6.47;;;13.10;98.40;;;;;;5099017;28;20459;-75
2022/06/16 03:42:11;;;;;;;7.47;6.10;;;13.10;98.50;;;;;;5117327;28;20435;-77
2022/06/16 03:44:40;;;;;;;7.43;6.70;;;13.10;98.60;;;;;;5117461;28;20435;-75
2022/06/16 03:47:11;;;;;;;7.33;6.63;;;13.10;98.70;;;;;;5099074;28;20551;-76
2022/06/16 03:49:43;;;;;;;7.27;6.67;;;13.10;98.80;;;;;;5098949;28;21015;-75
2022/06/16 03:52:11;;;;;;;7.60;6.87;;;13.10;98.90;;;;;;5098753;28;20479;-77
2022/06/16 03:54:47;;;;;;;7.73;7.03;;;13.10;99.00;;;;;;5098966;28;20793;-77
2022/06/16 03:57:16;;;;;;;7.27;6.57;;;13.10;99.10;;;;;;5098665;28;20486;-76
2022/06/16 03:59:46;;;;;;;8.87;6.97;;;13.10;99.10;;;;;;5099158;28;20846;-78
2022/06/16 04:02:45;;;;;;;7.17;6.57;;;13.10;99.20;;;;;;5116884;28;20948;-75
2022/06/16 04:05:20;;;;;;;7.67;7.07;;;13.20;99.30;;;;;;5098787;28;20453;-76
2022/06/16 04:07:57;;;;;;;7.97;7.27;;;13.10;99.30;;;;;;5098536;28;20450;-74
2022/06/16 04:10:28;;;;;;;9.57;7.53;;;13.10;99.40;;;;;;5098315;28;20874;-76
2022/06/16 04:12:56;;;;;;;8.00;7.30;;;13.20;99.50;;;;;;5098082;28;20447;-76
2022/06/16 04:15:30;;;;;;;6.77;6.17;;;13.20;99.60;;;;;;5098541;28;20550;-76
2022/06/16 04:17:59;;;;;;;9.17;8.30;;;13.20;99.60;;;;;;5100317;28;20940;-77
2022/06/16 04:20:36;;;;;;;7.93;7.13;;;13.20;99.70;;;;;;5098871;28;20443;-77
2022/06/16 04:23:33;;;;;;;7.60;6.90;;;13.20;99.90;;;;;;5096929;28;20440;-74
2022/06/16 04:26:03;;;;;;;8.20;7.50;;;13.20;99.90;;;;;;5098649;28;20459;-75
2022/06/16 04:28:31;;;;;;;8.70;7.90;;;13.30;99.90;;;;;;5098136;28;20539;-76
2022/06/16 04:31:00;;;;;;;9.93;7.40;;;13.30;99.90;;;;;;5098028;28;20512;-76
2022/06/16 04:33:32;;;;;;;8.67;7.80;;;13.30;99.90;;;;;;5097976;28;20869;-74
2022/06/16 04:36:04;;;;;;;8.33;6.93;;;13.30;99.90;;;;;;5116051;28;20521;-76
2022/06/16 04:38:36;;;;;;;8.20;7.40;;;13.40;99.90;;;;;;5131885;27;20467;-76
2022/06/16 04:41:06;;;;;;;7.83;7.07;;;13.40;99.90;;;;;;5097765;28;20956;-75
2022/06/16 04:43:36;;;;;;;7.97;6.57;;;13.40;99.90;;;;;;5097884;28;20454;-75
2022/06/16 04:46:06;;;;;;;6.90;6.30;;;13.50;99.90;;;;;;5097793;28;20884;-76
2022/06/16 04:48:43;;;;;;;8.47;6.97;;;13.50;99.90;;;;;;5097710;28;20478;-75
2022/06/16 04:51:17;;;;;;;7.60;6.80;;;13.50;99.90;;;;;;5097639;28;20448;-76
2022/06/16 04:53:49;;;;;;;7.27;6.67;;;13.50;99.90;;;;;;5097493;28;20485;-74
2022/06/16 04:56:33;;;;;;;6.33;5.80;;;13.60;99.90;;;;;;5097582;28;20467;-76
2022/06/16 04:59:25;;;;;;;7.67;6.27;;;13.60;99.90;;;;;;5110022;28;20960;-77
2022/06/16 05:02:16;;;;;;;6.53;5.93;;;13.70;99.90;;;;;;5097617;28;20854;-78
2022/06/16 05:05:11;;;;;;;7.43;6.30;;;13.70;99.90;;;;;;5100076;28;20446;-77
2022/06/16 05:07:51;;;;;;;6.27;5.67;;;13.70;99.90;;;;;;5097711;28;20435;-76
2022/06/16 05:10:30;;;;;;;6.90;5.87;;;13.80;99.90;;;;;;5097798;28;20451;-77
2022/06/16 05:13:08;;;;;;;6.03;5.37;;;13.80;99.90;;;;;;5097495;28;20484;-76
2022/06/16 05:15:42;;;;;;;7.80;5.23;;;13.80;99.90;;;;;;5097448;28;20463;-77
2022/06/16 05:18:28;;;;;;;5.97;5.33;;;13.90;99.90;;;;;;5097970;28;20793;-76
2022/06/16 05:21:08;;;;;;;8.10;5.73;;;13.90;99.90;;;;;;5098040;28;20802;-75
2022/06/16 05:24:08;;;;;;;4.37;3.80;;;14.00;99.90;;;;;;5106253;28;20440;-76
2022/06/16 05:26:55;;;;;;;6.20;4.60;;;14.00;99.90;;;;;;5116370;28;20451;-77
2022/06/16 05:29:35;;;;;;;5.57;4.97;;;14.00;99.90;;;;;;5097790;28;20451;-77
2022/06/16 05:32:13;;;;;;;5.50;5.00;;;14.10;99.90;;;;;;5098092;28;20444;-77
2022/06/16 05:34:51;;;;;;;6.67;5.60;;;14.20;99.90;;;;;;5098789;28;20514;-78
2022/06/16 05:37:37;;;;;;;6.03;5.13;;;14.20;99.90;;;;;;5115490;28;20986;-78
2022/06/16 05:40:26;;;;;;;6.60;4.30;;;14.40;99.90;;;;;;5116429;28;20430;-78
2022/06/16 05:43:12;;;;;;;7.43;5.40;;;14.60;99.90;;;;;;5117805;28;20458;-78
2022/06/16 05:45:53;;;;;;;7.67;6.97;;;14.80;99.90;;;;;;5097820;28;20992;-78
2022/06/16 05:48:25;;;;;;;5.13;4.53;;;15.00;99.90;;;;;;5114838;28;20967;-76
2022/06/16 05:51:04;;;;;;;6.10;5.13;;;15.30;99.90;;;;;;5097292;28;20453;-78
2022/06/16 05:53:35;;;;;;;6.40;4.53;;;15.50;99.90;;;;;;5098334;28;20535;-78
2022/06/16 05:56:13;;;;;;;5.40;4.90;;;15.80;99.90;;;;;;5099482;28;20508;-75
2022/06/16 05:58:42;;;;;;;5.23;4.47;;;16.20;99.90;;;;;;5098086;28;20409;-76
2022/06/16 06:01:13;;;;;;;7.83;4.73;;;16.40;99.90;;;;;;5114860;28;20447;-76
2022/06/16 06:03:43;;;;;;;6.20;5.70;;;16.70;99.90;;;;;;5097073;28;20455;-77
2022/06/16 06:06:12;;;;;;;4.70;4.10;;;16.90;99.90;;;;;;5097333;28;20459;-77
2022/06/16 06:17:10;;;;;;;3.23;2.93;;;18.00;99.90;;;;;;5096939;28;20450;-77
2022/06/16 06:19:38;;;;;;;4.33;2.90;;;18.20;99.90;;;;;;5097002;28;20443;-76
2022/06/16 06:22:11;;;;;;;4.00;2.27;;;18.50;99.90;;;;;;5097053;28;20812;-77
2022/06/16 06:24:43;;;;;;;3.13;2.10;;;18.80;99.90;;;;;;5097069;28;20454;-77
2022/06/16 06:27:25;;;;;;;2.53;2.10;;;19.00;99.90;;;;;;5096539;28;20467;-77
2022/06/16 06:29:53;;;;;;;5.13;2.03;;;19.20;99.90;;;;;;5096770;28;20435;-78
2022/06/16 06:32:23;;;;;;;3.07;2.10;;;19.40;99.90;;;;;;5097662;28;20448;-77
2022/06/16 06:34:52;;;;;;;2.57;1.80;;;19.60;99.50;;;;;;5114443;28;20440;-78
2022/06/16 06:37:23;;;;;;;4.80;1.90;;;19.70;99.10;;;;;;5115216;28;20837;-79
2022/06/16 06:39:52;;;;;;;2.23;1.77;;;19.80;98.80;;;;;;5097134;28;20853;-78
2022/06/16 06:42:22;;;;;;;2.50;1.87;;;19.90;98.60;;;;;;5097930;28;20447;-78
2022/06/16 06:44:51;;;;;;;3.30;1.87;;;20.00;98.30;;;;;;5097671;28;20451;-78
2022/06/16 06:47:22;;;;;;;3.63;1.80;;;20.20;97.90;;;;;;5116908;28;20990;-78
2022/06/16 06:49:50;;;;;;;2.60;2.00;;;20.30;97.50;;;;;;5098996;28;20443;-78
2022/06/16 06:52:19;;;;;;;1.70;1.50;;;20.40;97.10;;;;;;5117297;28;20446;-79
2022/06/16 06:54:48;;;;;;;2.27;1.60;;;20.50;96.90;;;;;;5116947;28;20531;-78
2022/06/16 06:57:20;;;;;;;2.30;1.57;;;20.60;96.60;;;;;;5098414;28;20471;-80
2022/06/16 06:59:49;;;;;;;4.40;1.57;;;20.70;96.30;;;;;;5115982;28;20428;-77
2022/06/16 07:02:18;;;;;;;3.37;1.77;;;20.80;95.80;;;;;;5098266;28;20952;-78
2022/06/16 07:04:47;;;;;;;3.77;1.70;;;20.90;95.70;;;;;;5116101;28;20440;-78
2022/06/16 07:07:19;;;;;;;2.20;1.70;;;21.00;95.60;;;;;;5131943;28;20542;-78
2022/06/16 07:09:48;;;;;;;3.03;1.63;;;21.20;95.30;;;;;;5098444;28;20435;-79
2022/06/16 07:12:18;;;;;;;3.20;1.67;;;21.30;95.10;;;;;;5117245;28;20431;-80
2022/06/16 07:14:50;;;;;;;2.57;1.77;;;21.40;94.80;;;;;;5097878;28;20439;-79
2022/06/16 07:17:20;;;;;;;1.70;1.20;;;21.60;94.50;;;;;;5117334;28;20883;-78
2022/06/16 07:19:49;;;;;;;4.10;1.73;;;21.60;94.30;;;;;;5098385;28;20522;-78
2022/06/16 07:22:18;;;;;;;5.30;2.20;;;21.70;94.20;;;;;;5116469;28;20432;-78
2022/06/16 07:24:46;;;;;;;4.40;1.40;;;21.80;93.90;;;;;;5098194;28;20447;-79
2022/06/16 07:27:14;;;;;;;2.50;1.20;;;21.90;93.50;;;;;;5097577;28;20574;-78
2022/06/16 07:29:42;;;;;;;2.90;1.30;;;22.00;93.10;;;;;;5097822;28;20443;-78
2022/06/16 07:32:14;;;;;;;2.83;1.40;;;22.00;92.90;;;;;;5097744;28;20467;-76
2022/06/16 07:34:44;;;;;;;4.87;1.50;;;22.00;92.60;;;;;;5098286;28;20463;-78
2022/06/16 07:37:12;;;;;;;3.20;1.33;;;22.00;92.40;;;;;;5098022;28;20498;-77
2022/06/16 07:39:41;;;;;;;2.07;1.40;;;22.00;92.10;;;;;;5098641;28;20440;-78
2022/06/16 07:42:10;;;;;;;4.30;1.80;;;22.00;91.70;;;;;;5097965;28;20530;-78
2022/06/16 07:44:39;;;;;;;2.07;1.60;;;22.00;91.50;;;;;;5097607;28;20473;-77
2022/06/16 07:47:07;;;;;;;2.30;1.33;;;22.00;91.50;;;;;;5097462;28;20528;-78
2022/06/16 07:49:37;;;;;;;4.00;1.30;;;22.10;91.40;;;;;;5104969;28;20522;-80
2022/06/16 07:52:06;;;;;;;1.93;1.20;;;22.10;91.40;;;;;;5138794;27;20516;-80
2022/06/16 07:54:34;;;;;;;3.90;1.40;;;22.20;91.00;;;;;;5122755;28;20443;-79
2022/06/16 07:57:21;;;;;;;2.27;1.00;;;22.30;90.60;;;;;;5121732;28;20473;-82
2022/06/16 07:59:57;;;;;;;3.40;1.37;;;22.20;90.60;;;;;;5101964;28;20431;-79
2022/06/16 08:02:26;;;;;;;2.87;1.40;;;22.20;90.50;;;;;;5120726;28;20488;-79
2022/06/16 08:04:56;;;;;;;1.60;1.00;;;22.30;90.20;;;;;;5117714;28;20443;-77
2022/06/16 08:07:24;;;;;;;2.40;1.13;;;22.40;90.10;;;;;;5120210;28;20451;-80
2022/06/16 08:09:52;;;;;;;2.57;1.10;;;22.50;90.00;;;;;;5119427;28;20514;-79
2022/06/16 08:12:20;;;;;;;2.70;1.23;;;22.60;89.70;;;;;;5119699;28;20445;-77
2022/06/16 08:14:49;;;;;;;2.23;1.07;;;22.60;89.40;;;;;;5120044;28;20845;-80
2022/06/16 08:17:21;;;;;;;2.27;1.40;;;22.60;88.80;;;;;;5122782;28;20972;-79
2022/06/16 08:19:50;;;;;;;2.10;1.20;;;22.60;88.70;;;;;;5116347;28;20443;-78
2022/06/16 08:22:20;;;;;;;3.50;1.23;;;22.70;89.20;;;;;;5127494;28;20439;-79
2022/06/16 08:24:48;;;;;;;2.67;1.40;;;22.70;88.60;;;;;;5106846;28;20442;-78
2022/06/16 08:27:18;;;;;;;2.40;1.20;;;22.80;88.20;;;;;;5121929;28;20466;-78
2022/06/16 08:29:47;;;;;;;1.87;1.20;;;22.90;88.10;;;;;;5100973;28;20447;-79
2022/06/16 08:32:17;;;;;;;3.00;1.53;;;22.90;88.10;;;;;;5100176;28;20490;-76
2022/06/16 08:34:47;;;;;;;3.90;1.20;;;23.00;88.10;;;;;;5099840;28;20431;-79
2022/06/16 08:37:15;;;;;;;2.03;1.17;;;23.00;87.70;;;;;;5100542;28;20474;-78
2022/06/16 08:39:45;;;;;;;2.67;1.43;;;23.10;87.70;;;;;;5101359;28;20886;-81
2022/06/16 08:42:26;;;;;;;2.27;1.40;;;23.20;87.50;;;;;;5100383;28;20448;-79
2022/06/16 08:45:02;;;;;;;1.93;1.73;;;23.20;87.10;;;;;;5119188;28;20416;-76
2022/06/16 08:47:38;;;;;;;2.10;1.30;;;23.10;86.70;;;;;;5119349;28;20481;-78
2022/06/16 08:50:17;;;;;;;2.70;1.30;;;23.10;86.40;;;;;;5119048;28;20980;-78
2022/06/16 08:52:56;;;;;;;2.03;1.03;;;23.10;86.60;;;;;;5100033;28;20463;-78
2022/06/16 08:55:33;;;;;;;2.63;1.43;;;23.20;86.90;;;;;;5100976;28;20553;-77
2022/06/16 08:58:12;;;;;;;3.10;1.83;;;23.30;86.90;;;;;;5118464;28;20506;-78
2022/06/16 09:00:47;;;;;;;2.43;1.30;;;23.40;87.00;;;;;;5100382;28;20450;-78
2022/06/16 09:03:21;;;;;;;2.47;1.47;;;23.50;87.00;;;;;;5134638;27;20439;-78
2022/06/16 09:05:56;;;;;;;2.90;1.67;;;23.60;87.20;;;;;;5100736;28;20475;-78
2022/06/16 09:08:38;;;;;;;5.03;1.60;;;23.70;87.10;;;;;;5121274;28;20433;-78
2022/06/16 09:11:14;;;;;;;2.67;1.37;;;23.80;86.60;;;;;;5102845;28;20812;-79
2022/06/16 09:14:18;;;;;;;2.43;1.47;;;23.80;86.40;;;;;;5100161;28;20435;-78
2022/06/16 09:16:57;;;;;;;2.27;1.40;;;23.80;85.80;;;;;;5091899;28;20830;-77
2022/06/16 09:19:46;;;;;;;4.13;2.30;;;23.80;85.80;;;;;;5119753;28;21005;-79
2022/06/16 09:22:28;;;;;;;3.30;1.50;;;23.80;85.90;;;;;;5120362;28;20896;-78
2022/06/16 09:25:16;;;;;;;2.03;1.40;;;23.80;85.60;;;;;;5120420;28;20436;-79
2022/06/16 09:27:51;;;;;;;4.17;1.83;;;23.80;85.00;;;;;;5101016;28;20492;-78
2022/06/16 09:30:22;;;;;;;4.37;1.90;;;23.80;85.10;;;;;;5118831;28;20503;-78
2022/06/16 09:32:54;;;;;;;5.40;1.60;;;23.80;85.00;;;;;;5118108;28;20896;-78
2022/06/16 09:35:29;;;;;;;2.43;1.30;;;23.80;84.90;;;;;;5100451;28;20538;-78
2022/06/16 09:38:03;;;;;;;2.90;1.80;;;23.90;84.90;;;;;;5118674;28;20513;-79
2022/06/16 09:40:37;;;;;;;2.53;1.47;;;23.90;84.60;;;;;;5119488;28;20419;-77
2022/06/16 09:43:13;;;;;;;2.80;1.80;;;24.00;84.70;;;;;;5135299;27;20447;-78
2022/06/16 09:45:46;;;;;;;3.47;1.70;;;24.00;84.80;;;;;;5119273;28;20462;-78
2022/06/16 09:48:21;;;;;;;3.90;1.70;;;24.00;84.90;;;;;;5118700;28;20438;-77
2022/06/16 09:51:02;;;;;;;5.70;1.83;;;24.10;85.10;;;;;;5099990;28;20468;-78
2022/06/16 09:53:35;;;;;;;2.37;1.47;;;24.20;85.00;;;;;;5103515;28;20439;-78
2022/06/16 09:56:08;;;;;;;3.60;1.40;;;24.30;84.70;;;;;;5101785;28;20483;-77
2022/06/16 09:58:45;;;;;;;1.77;1.23;;;24.30;84.40;;;;;;5119964;28;20484;-78
2022/06/16 10:01:17;;;;;;;3.40;1.97;;;24.30;84.20;;;;;;5119750;28;20450;-78
2022/06/16 10:03:54;;;;;;;4.63;2.73;;;24.40;84.50;;;;;;5119169;28;20428;-79
2022/06/16 10:06:34;;;;;;;2.37;1.60;;;24.30;83.20;;;;;;5101966;28;20469;-79
2022/06/16 10:09:11;;;;;;;2.87;1.67;;;24.20;83.00;;;;;;5120009;28;20427;-77
2022/06/16 10:11:49;;;;;;;3.17;1.60;;;24.10;83.00;;;;;;5100532;28;20458;-77
2022/06/16 10:14:27;;;;;;;3.30;2.10;;;24.20;83.30;;;;;;5119584;28;20450;-78
2022/06/16 10:16:59;;;;;;;2.60;2.10;;;24.20;83.40;;;;;;5134076;27;20474;-78
2022/06/16 10:19:30;;;;;;;4.00;2.40;;;24.20;83.50;;;;;;5119537;28;20455;-78
2022/06/16 10:22:01;;;;;;;2.23;1.67;;;24.30;83.50;;;;;;5119597;28;20913;-78
2022/06/16 10:24:36;;;;;;;2.77;2.40;;;24.30;83.20;;;;;;5134893;27;20530;-77
2022/06/16 10:27:05;;;;;;;2.47;1.80;;;24.30;82.90;;;;;;5133988;27;20473;-78
2022/06/16 10:29:36;;;;;;;3.30;1.80;;;24.40;83.10;;;;;;5119273;28;20519;-79
2022/06/16 10:32:14;;;;;;;2.37;1.87;;;24.50;82.80;;;;;;5100186;28;20461;-78
2022/06/16 10:34:44;;;;;;;2.93;1.70;;;24.50;82.20;;;;;;5119684;28;20473;-78
2022/06/16 10:37:16;;;;;;;2.73;1.70;;;24.50;82.40;;;;;;5118889;28;20457;-77
2022/06/16 10:39:54;;;;;;;3.23;2.83;;;24.50;82.90;;;;;;5101774;28;20451;-78
2022/06/16 10:42:27;;;;;;;3.23;1.70;;;24.50;82.10;;;;;;5099779;28;20428;-79
2022/06/16 10:45:06;;;;;;;2.53;1.63;;;24.40;82.20;;;;;;5118763;28;20901;-78
2022/06/16 10:47:40;;;;;;;2.57;1.70;;;24.40;82.00;;;;;;5100600;28;20463;-78
2022/06/16 10:50:17;;;;;;;3.03;1.40;;;24.30;81.40;;;;;;5101596;28;20471;-80
2022/06/16 10:52:51;;;;;;;2.70;1.80;;;24.30;81.40;;;;;;5101146;28;20439;-78
2022/06/16 10:55:23;;;;;;;2.40;1.77;;;24.30;81.00;;;;;;5133858;28;20450;-79
2022/06/16 10:58:00;;;;;;;3.23;1.80;;;24.30;80.90;;;;;;5099576;28;20443;-79
2022/06/16 11:00:32;;;;;;;2.37;1.40;;;24.30;80.40;;;;;;5119212;28;20469;-78
2022/06/16 11:03:16;;;;;;;2.20;1.27;;;24.30;80.00;;;;;;5119757;28;20986;-79
2022/06/16 11:05:54;;;;;;;2.87;2.23;;;24.30;79.70;;;;;;5100915;28;20459;-78
2022/06/16 11:08:26;;;;;;;3.70;1.90;;;24.30;79.40;;;;;;5102885;28;20438;-80
2022/06/16 11:11:19;;;;;;;2.37;2.00;;;24.30;79.30;;;;;;5124689;28;20485;-78
2022/06/16 11:13:50;;;;;;;2.30;1.57;;;24.30;78.70;;;;;;5121956;28;20411;-81
2022/06/16 11:16:28;;;;;;;4.40;1.83;;;24.30;78.10;;;;;;5121749;28;20464;-78
2022/06/16 11:19:00;;;;;;;2.03;1.47;;;24.30;77.70;;;;;;5101774;28;20442;-78
2022/06/16 11:21:30;;;;;;;3.83;1.90;;;24.30;77.60;;;;;;5119826;28;20476;-79
2022/06/16 11:24:01;;;;;;;2.67;1.83;;;24.30;77.30;;;;;;5104142;28;20952;-79
2022/06/16 11:26:32;;;;;;;2.20;1.87;;;24.30;76.40;;;;;;5123962;28;20459;-79
2022/06/16 11:29:15;;;;;;;2.87;1.80;;;24.30;76.10;;;;;;5122585;28;20427;-78
2022/06/16 11:31:46;;;;;;;3.17;1.90;;;24.30;76.60;;;;;;5123961;28;20416;-78
2022/06/16 11:34:20;;;;;;;3.47;2.00;;;24.30;75.80;;;;;;5122539;28;20506;-79
2022/06/16 11:37:08;;;;;;;2.87;1.90;;;24.40;75.90;;;;;;5137702;27;20470;-80
2022/06/16 11:39:56;;;;;;;2.60;1.80;;;24.40;75.60;;;;;;5132211;27;20497;-78
2022/06/16 11:42:36;;;;;;;5.07;2.20;;;24.40;75.50;;;;;;5135966;27;20473;-78
2022/06/16 11:45:11;;;;;;;2.53;1.67;;;24.40;75.70;;;;;;5134422;27;20824;-79
2022/06/16 11:47:50;;;;;;;2.00;1.70;;;24.30;74.90;;;;;;5116733;27;20557;-78
2022/06/16 11:50:32;;;;;;;2.37;1.87;;;24.40;74.90;;;;;;5137007;27;20465;-79
2022/06/16 11:53:12;;;;;;;4.43;1.73;;;24.40;74.50;;;;;;5122200;27;20434;-79
2022/06/16 11:55:45;;;;;;;2.13;1.93;;;24.40;74.20;;;;;;5122965;27;20500;-80
2022/06/16 11:58:52;;;;;;;4.70;1.50;;;24.40;74.40;;;;;;5122750;27;20445;-79
2022/06/16 12:01:27;;;;;;;3.17;2.00;;;24.40;74.50;;;;;;5123236;27;20481;-80
2022/06/16 12:04:28;;;;;;;4.07;2.20;;;24.40;74.40;;;;;;5140651;27;20476;-79
2022/06/16 12:07:16;;;;;;;3.60;1.40;;;24.40;74.40;;;;;;5140474;27;20523;-80
2022/06/16 12:09:52;;;;;;;2.53;1.57;;;24.40;74.30;;;;;;5112610;27;20853;-79
2022/06/16 12:12:28;;;;;;;2.60;1.63;;;24.40;74.50;;;;;;5126446;27;20522;-78
2022/06/16 12:15:07;;;;;;;3.10;1.73;;;24.40;74.10;;;;;;5130329;27;20920;-78
2022/06/16 12:17:43;;;;;;;2.77;1.70;;;24.40;74.10;;;;;;5123109;27;20466;-78
2022/06/16 12:20:19;;;;;;;4.80;1.90;;;24.40;73.90;;;;;;5109364;27;20497;-79
2022/06/16 12:23:10;;;;;;;2.67;1.80;;;24.40;74.00;;;;;;5113158;27;20463;-79
2022/06/16 12:25:46;;;;;;;1.97;1.70;;;24.40;73.90;;;;;;5110708;28;20485;-78
2022/06/16 12:28:23;;;;;;;2.77;2.17;;;24.40;73.70;;;;;;5128072;27;20981;-78
2022/06/16 12:30:59;;;;;;;2.17;1.70;;;24.40;73.70;;;;;;5132335;27;20450;-79
2022/06/16 12:33:38;;;;;;;4.13;2.00;;;24.40;73.80;;;;;;5129026;27;20434;-78
2022/06/16 12:36:12;;;;;;;2.13;1.93;;;24.40;73.80;;;;;;5133722;27;20469;-77
2022/06/16 12:38:47;;;;;;;4.07;2.23;;;24.40;73.80;;;;;;5109791;27;20936;-78
2022/06/16 12:41:23;;;;;;;3.37;2.20;;;24.40;73.80;;;;;;5103737;28;20458;-78
2022/06/16 12:43:57;;;;;;;4.40;2.50;;;24.30;73.60;;;;;;5099111;28;20633;-78
2022/06/16 12:46:31;;;;;;;2.57;1.80;;;24.30;73.70;;;;;;5116999;28;20465;-76
2022/06/16 12:49:04;;;;;;;5.60;3.10;;;24.30;74.10;;;;;;5101879;28;20431;-81
2022/06/16 12:51:38;;;;;;;2.37;1.93;;;24.30;74.60;;;;;;5102037;28;20854;-80
2022/06/16 12:54:09;;;;;;;2.17;1.97;;;24.30;74.70;;;;;;5120499;28;20416;-80
2022/06/16 12:56:45;;;;;;;2.77;1.77;;;24.30;74.90;;;;;;5104960;28;20467;-80
2022/06/16 12:59:18;;;;;;;3.30;2.47;;;24.30;75.00;;;;;;5103886;28;20500;-80
2022/06/16 13:01:50;;;;;;;3.53;2.10;;;24.30;75.00;;;;;;5121683;28;20838;-81
2022/06/16 13:04:26;;;;;;;3.37;1.70;;;24.30;75.20;;;;;;5101177;28;20439;-80
2022/06/16 13:06:57;;;;;;;2.87;2.10;;;24.30;75.10;;;;;;5150559;27;20487;-78
2022/06/16 13:09:26;;;;;;;3.47;2.30;;;24.30;75.20;;;;;;5161838;27;20413;-79
2022/06/16 13:11:58;;;;;;;35.53;32.03;;;24.30;74.60;;;;;;5142150;27;21141;-81
2022/06/16 13:14:30;;;;;;;9.70;7.77;;;24.20;73.80;;;;;;5160013;27;20982;-80
2022/06/16 13:17:02;;;;;;;3.30;3.00;;;24.20;74.10;;;;;;5158758;27;20458;-78
2022/06/16 13:19:35;;;;;;;3.80;2.50;;;24.20;74.00;;;;;;5142304;27;20430;-78
2022/06/16 13:22:07;;;;;;;3.20;2.30;;;24.20;73.70;;;;;;5142460;27;20464;-79
2022/06/16 13:24:40;;;;;;;3.87;2.40;;;24.20;73.60;;;;;;5160728;27;20410;-80
2022/06/16 13:27:13;;;;;;;3.00;2.10;;;24.20;72.80;;;;;;5161388;27;20469;-79
2022/06/16 13:30:01;;;;;;;6.07;2.97;;;24.20;72.30;;;;;;5161912;27;20587;-80
2022/06/16 13:32:39;;;;;;;3.50;2.17;;;24.30;72.10;;;;;;5142363;27;20434;-79
2022/06/16 13:35:31;;;;;;;3.10;2.50;;;24.20;71.40;;;;;;5160360;27;20420;-79